CYQL

Lethbridge County Airport

Lethbridge, Alberta, Canada
TAF CYQL 200538Z 2006/2018 27015G25KT P6SM BKN260 BECMG 2009/2011 24012KT SKC FM201400 23005KT P6SM FEW260 BECMG 2016/2018 14005KT RMK FCST BASED ON AUTO OBS. NXT FCST BY 201200Z
Issued Valid From Valid To
Jan-20 @ 05:38 UTC
(5 hours ago)
Jan-20 @ 06:00 UTC
(5 hours ago)
Jan-20 @ 18:00 UTC
(in 7 hours)
Expired Click to View Jan-20 @ 06:00 to Jan-20 @ 09:00
TAF CYQL 200538Z 2006/2018 27015G25KT P6SM BKN260
Wind Visibility Clouds
270° at 15 knots
 Gusting to 25 knots
Greater than 6 miles
  • Broken at 26,000' AGL
Becoming Jan-20 @ 09:00 to Jan-20 @ 14:00
BECMG 2009/2011 24012KT SKC
Wind Visibility Clouds
240° at 12 knots Greater than 6 miles
  • Clear skies
From Jan-20 @ 14:00 to Jan-20 @ 16:00
FM201400 23005KT P6SM FEW260
Wind Visibility Clouds
230° at 5 knots Greater than 6 miles
  • Few at 26,000' AGL
Becoming Jan-20 @ 16:00 to Jan-20 @ 18:00
BECMG 2016/2018 14005KT RMK FCST BASED ON AUTO OBS. NXT FCST BY 201200Z
Wind Visibility Clouds
140° at 5 knots Greater than 6 miles
  • Few at 26,000' AGL
TAF CYQL 200538Z 2006/2018 27015G25KT P6SM BKN260 BECMG 2009/2011 24012KT SKC FM201400 23005KT P6SM FEW260 BECMG 2016/2018 14005KT RMK FCST BASED ON AUTO OBS. NXT FCST BY 201200Z
Issued Jan-20 @ 05:38 UTC
(5 hours ago)
Valid From Jan-20 @ 06:00 UTC
(5 hours ago)
Valid To Jan-20 @ 18:00 UTC
(in 7 hours)
Jan-20 @ 06:00 - Jan-20 @ 09:00
Wind Visibility
270° at 15 knots
 Gusting to 25 knots
Greater than 6 miles
Clouds
  • Broken at 26,000' AGL
Becoming Jan-20 @ 09:00 - Jan-20 @ 14:00
Wind Visibility
240° at 12 knots Greater than 6 miles
Clouds
  • Clear skies
From Jan-20 @ 14:00 - Jan-20 @ 16:00
Wind Visibility
230° at 5 knots Greater than 6 miles
Clouds
  • Few at 26,000' AGL
Becoming Jan-20 @ 16:00 - Jan-20 @ 18:00
Wind Visibility
140° at 5 knots Greater than 6 miles
Clouds
  • Few at 26,000' AGL